Palmeiras, Brazil
Current Conditions -  °F | °C
As of 10:00 AM on Thursday 30 Oct 2014 (Local Time) from SBQV Reporting Station
Overcast Overcast  
Wind Chill: 72°   Ceiling: 7000
Heat Index: 72°   Visibility: 6mi
Dew Point: 66°   Wind: 9mph
Humidity: 83%   Direction: 30°NNE
Pressure: 30.12"   Gusts: NA
Location:  12.53°S, 41.56°W
Report Text: SBQV 301300Z 03008KT 9999 SCT013 OVC070 22/19 Q1020
Loading
Personal Weather Stations






























Interactive Weather Map
Tropical Storm Tracking
New forecast layout! Learn more

10-Day Weather Forecast

Advertisements
Track Severe Weather on mobile